Time;durP1;ratioP1;P1;durP2;ratioP2;P2;SDS_P1;SDS_P2;PMS_P1;PMS_P2;Temp;Humidity;BMP_temperature;BMP_pressure;BME280_temperature;BME280_humidity;BME280_pressure;Samples;Min_cycle;Max_cycle;Signal;HPM_P1;HPM_P2
2021/12/08 00:00:55;;;;;;;7.75;2.45;;;3.40;99.90;;;;;;5107156;27;20388;-87
2021/12/08 00:03:23;;;;;;;13.73;6.45;;;3.50;99.90;;;;;;5115960;27;20039;-86
2021/12/08 00:05:50;;;;;;;8.02;2.65;;;3.50;99.90;;;;;;5098911;27;20063;-84
2021/12/08 00:08:22;;;;;;;5.80;2.00;;;3.60;99.90;;;;;;5099934;27;20040;-85
2021/12/08 00:13:16;;;;;;;6.45;2.67;;;3.50;99.90;;;;;;5112934;27;20074;-86
2021/12/08 00:15:46;;;;;;;7.50;2.78;;;3.50;99.90;;;;;;5095700;27;20445;-86
2021/12/08 00:18:14;;;;;;;10.35;3.20;;;3.50;99.90;;;;;;5106105;27;20074;-87
2021/12/08 00:20:41;;;;;;;12.55;6.38;;;3.50;99.90;;;;;;5115873;27;20031;-86
2021/12/08 00:23:08;;;;;;;8.05;2.95;;;3.50;99.90;;;;;;5121351;27;20043;-85
2021/12/08 00:25:35;;;;;;;5.30;2.10;;;3.50;99.90;;;;;;5108602;27;20063;-86
2021/12/08 00:28:01;;;;;;;7.38;2.40;;;3.50;99.90;;;;;;5085992;28;20499;-86
2021/12/08 00:30:28;;;;;;;11.57;3.13;;;3.50;99.90;;;;;;5092347;28;20059;-85
2021/12/08 00:32:55;;;;;;;6.88;2.47;;;3.50;99.90;;;;;;5078399;28;20404;-86
2021/12/08 00:35:22;;;;;;;10.50;2.60;;;3.50;99.90;;;;;;5076721;28;20143;-87
2021/12/08 00:37:47;;;;;;;7.50;2.60;;;3.50;99.90;;;;;;5079691;28;20280;-86
2021/12/08 00:40:15;;;;;;;6.60;2.55;;;3.50;99.90;;;;;;5076780;28;20036;-87
2021/12/08 00:42:42;;;;;;;7.80;2.95;;;3.50;99.90;;;;;;5082532;28;20093;-87
2021/12/08 00:45:10;;;;;;;6.65;2.50;;;3.50;99.90;;;;;;5105015;28;20071;-86
2021/12/08 00:47:37;;;;;;;5.72;2.00;;;3.50;99.90;;;;;;5085168;28;20079;-85
2021/12/08 00:50:08;;;;;;;11.32;6.20;;;3.50;99.90;;;;;;5079169;28;20047;-86
2021/12/08 00:52:34;;;;;;;7.07;2.33;;;3.60;99.90;;;;;;5075346;28;20130;-85
2021/12/08 00:55:01;;;;;;;9.65;2.38;;;3.70;99.90;;;;;;5093327;28;20130;-87
2021/12/08 00:57:27;;;;;;;8.65;2.60;;;3.60;99.90;;;;;;5077519;28;20085;-86
2021/12/08 00:59:53;;;;;;;9.77;2.58;;;3.60;99.90;;;;;;5087540;28;20075;-86
2021/12/08 01:02:18;;;;;;;6.15;2.28;;;3.60;99.90;;;;;;5087685;28;20265;-86
2021/12/08 01:04:44;;;;;;;6.68;2.35;;;3.60;99.90;;;;;;5086981;28;20044;-86
2021/12/08 01:07:10;;;;;;;8.95;2.53;;;3.70;99.90;;;;;;5094345;28;20101;-87
2021/12/08 01:09:36;;;;;;;13.68;3.53;;;3.70;99.90;;;;;;5072846;28;20083;-85
2021/12/08 01:12:03;;;;;;;8.27;3.42;;;3.70;99.90;;;;;;5104393;28;20065;-85
2021/12/08 01:14:31;;;;;;;9.02;3.00;;;3.70;99.90;;;;;;5106379;28;20047;-86
2021/12/08 01:16:57;;;;;;;8.85;2.53;;;3.70;99.90;;;;;;5105134;28;20047;-86
2021/12/08 01:19:24;;;;;;;9.40;3.38;;;3.70;99.90;;;;;;5100144;28;20101;-86
2021/12/08 01:21:51;;;;;;;7.78;2.42;;;3.70;99.90;;;;;;5083759;28;20432;-85
2021/12/08 01:24:16;;;;;;;7.25;2.47;;;3.80;99.90;;;;;;5088539;28;20073;-87
2021/12/08 01:26:42;;;;;;;5.10;2.33;;;3.80;99.90;;;;;;5102834;28;20516;-86
2021/12/08 01:29:08;;;;;;;5.75;2.20;;;3.80;99.90;;;;;;5082899;28;20044;-87
2021/12/08 01:31:36;;;;;;;8.95;2.83;;;3.80;99.90;;;;;;5105186;28;20043;-86
2021/12/08 01:34:03;;;;;;;8.18;2.60;;;3.80;99.90;;;;;;5104634;28;20092;-85
2021/12/08 01:36:28;;;;;;;6.75;2.47;;;3.80;99.90;;;;;;5100433;28;20485;-86
2021/12/08 01:38:54;;;;;;;12.07;7.03;;;3.90;99.90;;;;;;5093446;28;20206;-86
2021/12/08 01:41:22;;;;;;;6.60;2.58;;;3.90;99.90;;;;;;5081398;28;20054;-85
2021/12/08 01:46:33;;;;;;;9.23;2.85;;;3.80;99.90;;;;;;5099142;28;20097;-86
2021/12/08 01:49:00;;;;;;;8.10;2.88;;;3.90;99.90;;;;;;5103909;28;20047;-85
2021/12/08 01:51:26;;;;;;;8.05;2.58;;;3.90;99.90;;;;;;5083126;28;20051;-86
2021/12/08 01:53:54;;;;;;;7.15;2.38;;;3.90;99.90;;;;;;5101054;28;20040;-86
2021/12/08 01:56:22;;;;;;;6.50;2.65;;;4.00;99.90;;;;;;5094420;28;20043;-86
2021/12/08 01:58:47;;;;;;;8.05;2.88;;;4.00;99.90;;;;;;5072802;28;20035;-86
2021/12/08 02:01:16;;;;;;;7.43;2.90;;;4.00;99.90;;;;;;5079684;28;20092;-86
2021/12/08 02:03:42;;;;;;;5.32;2.50;;;4.00;99.90;;;;;;5079851;28;20425;-86
2021/12/08 02:06:10;;;;;;;7.93;2.58;;;4.00;99.90;;;;;;5075028;28;20040;-86
2021/12/08 02:08:37;;;;;;;5.88;2.38;;;4.00;99.90;;;;;;5097694;28;20036;-86
2021/12/08 02:11:04;;;;;;;6.70;2.42;;;4.00;99.90;;;;;;5070322;28;20051;-86
2021/12/08 02:13:36;;;;;;;5.47;2.38;;;4.00;99.90;;;;;;5077416;28;20450;-86
2021/12/08 02:16:06;;;;;;;11.88;6.55;;;4.00;99.90;;;;;;5096615;28;20123;-86
2021/12/08 02:18:32;;;;;;;6.00;2.63;;;4.00;99.90;;;;;;5084056;28;20039;-86
2021/12/08 02:21:00;;;;;;;9.23;2.55;;;4.10;99.90;;;;;;5080490;28;20052;-86
2021/12/08 02:23:27;;;;;;;5.68;2.13;;;4.00;99.90;;;;;;5101468;28;20085;-85
2021/12/08 02:25:53;;;;;;;8.15;2.47;;;4.00;99.90;;;;;;5093977;28;20055;-85
2021/12/08 02:28:18;;;;;;;7.88;2.40;;;4.00;99.90;;;;;;5087889;28;20039;-86
2021/12/08 02:30:50;;;;;;;7.55;2.67;;;4.00;99.90;;;;;;5089998;28;20462;-86
2021/12/08 02:47:15;;;;;;;5.97;2.33;;;4.00;99.90;;;;;;5101856;28;20081;-85
2021/12/08 02:49:41;;;;;;;6.57;2.80;;;4.00;99.90;;;;;;5082528;28;20047;-85
2021/12/08 02:52:09;;;;;;;11.65;6.47;;;4.00;99.90;;;;;;5074172;28;20052;-85
2021/12/08 02:54:39;;;;;;;7.03;2.35;;;4.10;99.90;;;;;;5093735;28;20036;-85
2021/12/08 02:57:06;;;;;;;5.72;1.98;;;4.10;99.90;;;;;;5094035;28;20480;-86
2021/12/08 02:59:31;;;;;;;7.75;2.65;;;4.00;99.90;;;;;;5075688;28;20398;-86
2021/12/08 03:01:57;;;;;;;12.60;7.20;;;4.00;99.90;;;;;;5082491;28;20043;-85
2021/12/08 03:04:23;;;;;;;11.23;3.45;;;4.10;99.90;;;;;;5103691;28;20332;-85
2021/12/08 03:06:49;;;;;;;7.28;2.75;;;4.10;99.90;;;;;;5091010;28;20040;-85
2021/12/08 03:09:14;;;;;;;7.65;3.03;;;4.10;99.90;;;;;;5072397;28;20036;-85
2021/12/08 03:11:40;;;;;;;7.90;2.70;;;4.10;99.90;;;;;;5091364;28;20128;-86
2021/12/08 03:14:10;;;;;;;7.68;2.47;;;4.10;99.90;;;;;;5088521;28;20044;-85
2021/12/08 03:16:40;;;;;;;8.77;2.88;;;4.20;99.90;;;;;;5096452;28;20108;-85
2021/12/08 03:19:06;;;;;;;6.68;2.65;;;4.10;99.90;;;;;;5096599;28;20124;-85
2021/12/08 03:21:33;;;;;;;10.40;7.38;;;4.20;99.90;;;;;;5093327;28;20431;-86
2021/12/08 03:24:19;;;;;;;10.18;2.92;;;4.20;99.90;;;;;;5092337;28;20121;-86
2021/12/08 03:26:55;;;;;;;7.07;2.50;;;4.20;99.90;;;;;;5114491;27;20126;-85
2021/12/08 03:29:27;;;;;;;5.65;2.42;;;4.20;99.90;;;;;;5118097;27;20043;-85
2021/12/08 03:32:02;;;;;;;8.18;3.20;;;4.20;99.90;;;;;;5105507;27;20055;-85
2021/12/08 03:34:30;;;;;;;8.05;3.33;;;4.20;99.90;;;;;;5104761;27;20039;-86
2021/12/08 03:36:56;;;;;;;12.25;9.02;;;4.20;99.90;;;;;;5095963;28;20416;-85
2021/12/08 03:39:21;;;;;;;13.00;8.75;;;4.30;99.90;;;;;;5095080;28;20043;-85
2021/12/08 03:41:47;;;;;;;6.50;2.90;;;4.40;99.90;;;;;;5112573;28;20082;-85
2021/12/08 03:44:13;;;;;;;10.30;3.30;;;4.40;99.90;;;;;;5105548;28;20038;-85
2021/12/08 03:46:41;;;;;;;12.27;4.03;;;4.40;99.90;;;;;;5105975;28;20324;-85
2021/12/08 03:49:11;;;;;;;14.52;10.05;;;4.40;99.90;;;;;;5104822;28;20039;-85
2021/12/08 03:51:38;;;;;;;9.10;3.90;;;4.50;99.90;;;;;;5104744;28;20050;-85
2021/12/08 03:54:05;;;;;;;8.48;3.47;;;4.50;99.90;;;;;;5096286;28;20134;-84
2021/12/08 03:56:31;;;;;;;16.50;11.10;;;4.50;99.90;;;;;;5090859;28;20067;-85
2021/12/08 03:58:56;;;;;;;9.20;3.95;;;4.60;99.90;;;;;;5105814;28;20051;-85
2021/12/08 04:01:22;;;;;;;9.70;3.63;;;4.60;99.90;;;;;;5108082;28;20035;-85
2021/12/08 04:03:50;;;;;;;10.07;4.20;;;4.60;99.90;;;;;;5110738;28;20040;-85
2021/12/08 04:06:29;;;;;;;9.73;4.45;;;4.60;99.90;;;;;;5113164;28;20047;-85
2021/12/08 04:08:56;;;;;;;8.95;4.47;;;4.60;99.90;;;;;;5107736;28;20134;-85
2021/12/08 04:11:24;;;;;;;8.77;4.47;;;4.60;99.90;;;;;;5095676;28;20040;-85
2021/12/08 04:13:55;;;;;;;8.30;4.15;;;4.70;99.90;;;;;;5109172;28;20051;-86
2021/12/08 04:16:24;;;;;;;;;;;4.70;99.90;;;;;;5103608;28;20104;-85
2021/12/08 04:18:50;;;;;;;13.02;4.68;;;4.70;99.90;;;;;;5090494;28;19927;-86
2021/12/08 04:21:16;;;;;;;14.85;13.25;;;4.80;99.90;;;;;;5116977;28;20405;-86
2021/12/08 04:23:42;;;;;;;9.15;3.95;;;4.80;99.90;;;;;;5110240;28;20036;-85
2021/12/08 04:26:19;;;;;;;9.50;4.20;;;4.90;99.90;;;;;;5122933;28;20047;-85
2021/12/08 04:28:45;;;;;;;9.60;4.65;;;4.90;99.90;;;;;;5099447;28;20044;-85
2021/12/08 04:31:18;;;;;;;11.77;5.05;;;4.90;99.90;;;;;;5092287;28;20048;-85
2021/12/08 04:33:46;;;;;;;8.57;4.68;;;4.90;99.90;;;;;;5091735;28;20043;-85
2021/12/08 04:36:14;;;;;;;16.35;13.25;;;4.90;99.90;;;;;;5120745;28;20088;-85
2021/12/08 04:38:44;;;;;;;9.23;4.55;;;5.00;99.90;;;;;;5102763;28;20035;-85
2021/12/08 04:41:18;;;;;;;8.43;4.47;;;5.00;99.90;;;;;;5115261;28;20034;-86
2021/12/08 04:52:06;;;;;;;10.85;4.57;;;5.10;99.90;;;;;;5119064;27;20055;-86
2021/12/08 05:03:15;;;;;;;10.15;4.53;;;5.10;99.90;;;;;;5136875;27;20431;-85
2021/12/08 05:08:14;;;;;;;7.55;3.95;;;5.10;99.90;;;;;;5115776;27;20074;-85
2021/12/08 05:10:41;;;;;;;8.95;4.40;;;5.10;99.90;;;;;;5113712;27;20035;-85
2021/12/08 05:13:11;;;;;;;9.63;4.20;;;5.00;99.90;;;;;;5093870;27;20046;-86
2021/12/08 05:15:52;;;;;;;10.02;4.50;;;5.00;99.90;;;;;;5105787;27;20043;-85
2021/12/08 05:18:32;;;;;;;7.57;3.63;;;5.00;99.90;;;;;;5112375;27;20047;-85
2021/12/08 05:21:07;;;;;;;14.45;11.40;;;5.00;99.90;;;;;;5109782;27;20063;-85
2021/12/08 05:23:44;;;;;;;10.10;4.40;;;5.00;99.90;;;;;;5117845;27;20046;-86
2021/12/08 05:26:33;;;;;;;12.60;4.35;;;5.00;99.90;;;;;;5100402;28;20522;-85
2021/12/08 05:29:07;;;;;;;9.25;3.53;;;5.00;99.90;;;;;;5092596;27;20039;-85
2021/12/08 05:31:34;;;;;;;10.38;4.03;;;5.00;99.90;;;;;;5103712;27;20043;-85
2021/12/08 05:34:00;;;;;;;14.88;11.18;;;5.00;99.90;;;;;;5111800;27;20035;-85
2021/12/08 05:36:26;;;;;;;9.38;3.50;;;5.10;99.90;;;;;;5100830;27;20101;-85
2021/12/08 05:38:55;;;;;;;9.95;3.95;;;5.10;99.90;;;;;;5117097;27;20429;-85
2021/12/08 05:41:25;;;;;;;14.93;10.75;;;5.10;99.90;;;;;;5123557;27;20160;-85
2021/12/08 05:43:51;;;;;;;9.48;4.03;;;5.20;99.90;;;;;;5124927;27;20055;-86
2021/12/08 05:46:19;;;;;;;12.30;4.57;;;5.20;99.90;;;;;;5122254;27;20404;-85
2021/12/08 05:48:47;;;;;;;8.52;4.13;;;5.20;99.90;;;;;;5123474;27;20047;-85
2021/12/08 05:51:26;;;;;;;10.45;3.75;;;5.10;99.90;;;;;;5104868;27;20051;-85
2021/12/08 05:53:55;;;;;;;9.25;3.90;;;5.10;99.90;;;;;;5107920;27;20073;-85
2021/12/08 05:56:21;;;;;;;9.73;3.45;;;5.00;99.90;;;;;;5110864;27;20077;-85
2021/12/08 05:58:52;;;;;;;15.50;10.27;;;5.00;99.90;;;;;;5092001;27;20034;-85
2021/12/08 06:01:39;;;;;;;8.52;3.35;;;5.00;99.90;;;;;;5098823;28;20047;-86
2021/12/08 06:04:07;;;;;;;8.88;3.85;;;5.00;99.90;;;;;;5097296;27;20051;-86
2021/12/08 06:06:34;;;;;;;7.72;3.10;;;5.00;99.90;;;;;;5121329;27;20059;-85
2021/12/08 06:09:00;;;;;;;10.48;3.15;;;4.90;99.90;;;;;;5117923;27;20126;-85
2021/12/08 06:11:27;;;;;;;8.73;3.60;;;4.90;99.90;;;;;;5098370;27;20047;-86
2021/12/08 06:13:59;;;;;;;11.40;3.22;;;4.90;99.90;;;;;;5104478;27;20456;-85
2021/12/08 06:16:25;;;;;;;8.00;3.47;;;4.80;99.90;;;;;;5117913;27;20064;-85
2021/12/08 06:18:52;;;;;;;7.53;3.28;;;4.80;99.90;;;;;;5110937;27;20036;-85
2021/12/08 06:21:21;;;;;;;10.45;3.47;;;4.70;99.90;;;;;;5107088;27;20055;-86
2021/12/08 06:23:48;;;;;;;14.05;8.77;;;4.70;99.90;;;;;;5090716;28;20035;-86
2021/12/08 06:26:16;;;;;;;8.05;3.17;;;4.80;99.90;;;;;;5100600;27;20056;-85
2021/12/08 06:28:42;;;;;;;6.93;3.15;;;4.80;99.90;;;;;;5085797;28;20391;-86
2021/12/08 06:31:10;;;;;;;13.25;9.40;;;4.70;99.90;;;;;;5099013;28;20051;-85
2021/12/08 06:33:36;;;;;;;8.95;3.38;;;4.70;99.90;;;;;;5093344;28;20039;-87
2021/12/08 06:36:09;;;;;;;6.95;2.88;;;4.70;99.90;;;;;;5086275;28;20104;-88
2021/12/08 06:38:36;;;;;;;6.93;2.90;;;4.70;99.90;;;;;;5078212;28;20056;-88
2021/12/08 06:41:07;;;;;;;6.68;3.03;;;4.70;99.90;;;;;;5095550;28;20051;-87
2021/12/08 06:43:41;;;;;;;8.63;3.15;;;4.70;99.90;;;;;;5102293;28;21484;-88
2021/12/08 06:46:08;;;;;;;8.57;3.28;;;4.70;99.90;;;;;;5075447;28;20146;-86
2021/12/08 06:48:38;;;;;;;8.02;3.20;;;4.70;99.90;;;;;;5071953;28;20119;-88
2021/12/08 06:51:13;;;;;;;7.28;2.33;;;4.70;99.90;;;;;;5076357;28;20099;-87
2021/12/08 06:53:42;;;;;;;10.70;3.42;;;4.70;99.90;;;;;;5103242;28;20502;-86
2021/12/08 06:56:40;;;;;;;12.15;7.07;;;4.70;99.90;;;;;;5081850;28;20438;-85
2021/12/08 06:59:11;;;;;;;5.78;2.38;;;4.80;99.90;;;;;;5059907;28;20055;-86
2021/12/08 07:01:48;;;;;;;;;;;4.70;99.90;;;;;;5076534;28;20425;-87
2021/12/08 07:04:31;;;;;;;6.72;2.50;;;4.70;99.90;;;;;;5089689;28;20018;-86
2021/12/08 07:07:17;;;;;;;8.15;2.53;;;4.70;99.90;;;;;;5080654;28;20396;-85
2021/12/08 07:09:48;;;;;;;6.55;2.10;;;4.70;99.90;;;;;;5079439;28;20052;-85
2021/12/08 07:12:22;;;;;;;7.80;1.98;;;4.70;99.90;;;;;;5075497;28;20040;-87
2021/12/08 07:14:57;;;;;;;5.63;1.95;;;4.70;99.90;;;;;;5089109;28;20036;-86
2021/12/08 07:17:27;;;;;;;10.50;5.90;;;4.70;99.90;;;;;;5078297;28;20120;-86
2021/12/08 07:20:13;;;;;;;7.35;2.05;;;4.70;99.90;;;;;;5094307;28;20081;-85
2021/12/08 07:22:39;;;;;;;11.02;5.47;;;4.80;99.90;;;;;;5089652;28;20044;-86
2021/12/08 07:25:06;;;;;;;5.25;2.17;;;4.80;99.90;;;;;;5081305;28;20039;-85
2021/12/08 07:27:35;;;;;;;5.82;1.63;;;4.80;99.90;;;;;;5090756;28;20059;-87
2021/12/08 07:30:07;;;;;;;5.53;1.95;;;4.80;99.90;;;;;;5093510;28;20486;-85
2021/12/08 07:32:36;;;;;;;10.95;5.10;;;4.80;99.90;;;;;;5108615;28;20047;-87
2021/12/08 07:35:08;;;;;;;7.95;2.42;;;4.80;99.90;;;;;;5117586;27;20050;-86
2021/12/08 07:37:35;;;;;;;5.45;2.65;;;4.90;99.90;;;;;;5095207;28;20031;-86
2021/12/08 07:40:14;;;;;;;7.38;2.08;;;4.80;99.90;;;;;;5088573;28;20048;-84
2021/12/08 07:42:47;;;;;;;6.30;2.45;;;4.80;99.90;;;;;;5095260;28;20039;-86
2021/12/08 07:45:18;;;;;;;8.30;2.05;;;4.80;99.90;;;;;;5090130;28;20449;-87
2021/12/08 07:47:44;;;;;;;9.80;1.83;;;4.80;99.90;;;;;;5118416;28;20039;-85
2021/12/08 07:50:17;;;;;;;5.60;1.90;;;4.80;99.90;;;;;;5118331;28;20044;-87
2021/12/08 07:52:44;;;;;;;11.35;4.93;;;4.80;99.90;;;;;;5092233;28;20523;-87
2021/12/08 07:55:15;;;;;;;5.30;2.25;;;4.80;99.90;;;;;;5091788;28;20081;-86
2021/12/08 07:57:42;;;;;;;4.55;1.63;;;4.90;99.90;;;;;;5098434;28;20040;-86
2021/12/08 08:00:21;;;;;;;6.18;2.35;;;4.80;99.90;;;;;;5097652;28;20074;-84
2021/12/08 08:02:47;;;;;;;6.45;2.20;;;4.90;99.90;;;;;;5096477;28;20092;-85
2021/12/08 08:05:15;;;;;;;10.75;4.35;;;4.80;99.90;;;;;;5114863;28;20076;-88
2021/12/08 08:07:43;;;;;;;4.78;1.70;;;4.90;99.90;;;;;;5110205;28;20404;-87
2021/12/08 08:10:14;;;;;;;6.72;2.30;;;4.90;99.90;;;;;;5108535;28;20396;-86
2021/12/08 08:12:42;;;;;;;5.93;1.70;;;4.90;99.90;;;;;;5111697;28;20506;-85
2021/12/08 08:15:25;;;;;;;7.78;1.92;;;4.90;99.90;;;;;;5119138;28;20038;-85
2021/12/08 08:17:54;;;;;;;11.13;4.35;;;4.90;99.90;;;;;;5115603;28;20051;-85
2021/12/08 08:20:33;;;;;;;7.60;2.00;;;4.90;99.90;;;;;;5119808;27;20039;-84
2021/12/08 08:23:00;;;;;;;4.88;1.70;;;5.00;99.90;;;;;;5108586;27;20140;-85
2021/12/08 08:25:34;;;;;;;4.38;1.65;;;4.90;99.90;;;;;;5089339;28;20051;-85
2021/12/08 08:28:01;;;;;;;10.30;3.90;;;4.90;99.90;;;;;;5102549;28;20097;-85
2021/12/08 08:30:36;;;;;;;6.78;1.90;;;4.90;99.90;;;;;;5094526;28;20043;-85
2021/12/08 08:33:04;;;;;;;12.27;4.57;;;5.00;99.90;;;;;;5089218;28;20052;-85
2021/12/08 08:35:43;;;;;;;11.27;4.72;;;5.00;99.90;;;;;;5106406;28;20035;-85
2021/12/08 08:38:31;;;;;;;6.20;1.77;;;5.10;99.90;;;;;;5097833;28;20056;-86
2021/12/08 08:41:14;;;;;;;4.28;1.25;;;5.10;99.90;;;;;;5087421;28;20039;-86
2021/12/08 08:43:40;;;;;;;4.57;1.65;;;5.10;99.90;;;;;;5081684;28;20044;-86
2021/12/08 08:46:12;;;;;;;12.32;3.80;;;5.10;99.90;;;;;;5077098;28;20043;-87
2021/12/08 08:48:43;;;;;;;5.45;1.70;;;5.20;99.90;;;;;;5106372;28;20515;-88
2021/12/08 08:51:17;;;;;;;2.65;1.45;;;5.20;99.90;;;;;;5098918;28;20422;-85
2021/12/08 08:53:46;;;;;;;4.57;1.35;;;5.20;99.90;;;;;;5098008;28;20067;-84
2021/12/08 08:56:19;;;;;;;11.27;3.53;;;5.30;99.90;;;;;;5098716;28;20051;-85
2021/12/08 08:58:50;;;;;;;3.95;1.08;;;5.40;99.90;;;;;;5102365;28;20400;-86
2021/12/08 09:01:23;;;;;;;12.60;3.92;;;5.50;99.90;;;;;;5081121;28;20381;-85
2021/12/08 09:03:57;;;;;;;6.95;1.83;;;5.60;99.90;;;;;;5093536;28;20032;-84
2021/12/08 09:06:30;;;;;;;10.63;3.70;;;5.60;99.90;;;;;;5088368;28;20071;-85
2021/12/08 09:08:56;;;;;;;4.35;1.33;;;5.70;99.90;;;;;;5077462;28;20040;-85
2021/12/08 09:11:32;;;;;;;7.40;1.98;;;5.70;99.90;;;;;;5095242;28;20055;-86
2021/12/08 09:14:08;;;;;;;7.82;1.98;;;5.60;99.90;;;;;;5089550;28;20039;-85
2021/12/08 09:16:42;;;;;;;6.55;2.15;;;5.60;99.90;;;;;;5087541;28;20048;-86
2021/12/08 09:19:14;;;;;;;11.18;4.22;;;5.60;99.90;;;;;;5077826;28;20055;-84
2021/12/08 09:21:39;;;;;;;4.00;1.40;;;5.70;99.90;;;;;;5099162;28;20187;-84
2021/12/08 09:24:09;;;;;;;6.05;2.13;;;5.60;99.90;;;;;;5075066;28;20135;-85
2021/12/08 09:26:38;;;;;;;12.98;3.85;;;5.60;99.90;;;;;;5113851;27;20074;-84
2021/12/08 09:29:17;;;;;;;10.70;1.70;;;5.70;99.90;;;;;;5107715;27;20416;-84
2021/12/08 09:31:54;;;;;;;12.65;3.92;;;5.70;99.90;;;;;;5106880;27;20055;-84
2021/12/08 09:34:25;;;;;;;9.30;1.60;;;5.70;99.90;;;;;;5116465;27;20031;-85
2021/12/08 09:36:55;;;;;;;;;;;5.70;99.90;;;;;;5097455;27;20096;-85
2021/12/08 09:39:33;;;;;;;5.95;2.05;;;5.60;99.90;;;;;;5098879;27;19926;-85
2021/12/08 09:42:17;;;;;;;5.60;1.52;;;5.60;99.90;;;;;;5113153;27;20051;-85
2021/12/08 09:44:47;;;;;;;13.18;3.78;;;5.60;99.90;;;;;;5095589;28;20019;-86
2021/12/08 09:47:14;;;;;;;12.70;3.53;;;5.70;99.90;;;;;;5097915;27;20043;-85
2021/12/08 09:49:39;;;;;;;8.13;2.13;;;5.70;99.90;;;;;;5105934;27;20050;-84
2021/12/08 09:52:08;;;;;;;12.00;3.38;;;5.70;99.90;;;;;;5116133;27;20129;-86
2021/12/08 09:54:35;;;;;;;12.38;3.50;;;5.70;99.90;;;;;;5113884;27;20497;-85
2021/12/08 09:57:06;;;;;;;6.18;2.22;;;5.80;99.90;;;;;;5118588;27;20062;-85
2021/12/08 09:59:33;;;;;;;7.45;1.65;;;5.80;99.90;;;;;;5113621;27;20031;-87
2021/12/08 10:02:02;;;;;;;10.00;1.83;;;5.80;99.90;;;;;;5093749;27;20047;-85
2021/12/08 10:04:28;;;;;;;10.85;3.70;;;5.80;99.90;;;;;;5106481;27;20046;-87
2021/12/08 10:07:00;;;;;;;5.32;1.70;;;6.00;99.90;;;;;;5124585;27;20357;-86
2021/12/08 10:09:25;;;;;;;6.20;1.77;;;6.10;99.90;;;;;;5115700;27;20058;-86
2021/12/08 10:11:54;;;;;;;10.98;3.40;;;6.10;99.90;;;;;;5107317;27;20051;-86
2021/12/08 10:14:20;;;;;;;14.20;4.30;;;6.10;99.90;;;;;;5116633;27;20076;-86
2021/12/08 10:16:50;;;;;;;7.50;2.00;;;6.20;99.90;;;;;;5112475;27;20043;-85
2021/12/08 10:19:17;;;;;;;3.80;1.40;;;6.20;99.90;;;;;;5117594;27;20035;-86
2021/12/08 10:21:43;;;;;;;7.13;1.83;;;6.10;99.90;;;;;;5103712;27;20552;-86
2021/12/08 10:24:20;;;;;;;10.07;3.80;;;6.10;99.90;;;;;;5124388;27;20047;-86
2021/12/08 10:26:47;;;;;;;14.45;4.38;;;6.20;99.90;;;;;;5104490;27;20051;-87
2021/12/08 10:29:14;;;;;;;10.00;2.65;;;6.20;99.90;;;;;;5105513;27;20043;-87
2021/12/08 10:31:47;;;;;;;11.10;3.90;;;6.20;99.90;;;;;;5141414;27;20047;-86
2021/12/08 10:36:47;;;;;;;6.90;1.98;;;6.20;99.90;;;;;;5113160;27;20107;-86
2021/12/08 10:39:15;;;;;;;14.05;4.00;;;6.10;99.90;;;;;;5109246;27;20039;-88
2021/12/08 10:41:50;;;;;;;5.88;1.95;;;6.10;99.90;;;;;;5092673;27;20047;-87
2021/12/08 10:44:24;;;;;;;12.55;4.03;;;6.10;99.90;;;;;;5094266;27;20039;-90
2021/12/08 10:46:55;;;;;;;6.88;2.28;;;6.00;99.90;;;;;;5102793;27;20083;-87
2021/12/08 10:54:55;;;;;;;11.65;3.78;;;5.90;99.90;;;;;;5061241;28;20047;-86
2021/12/08 10:57:31;;;;;;;10.77;4.15;;;6.00;99.90;;;;;;5047031;28;20048;-86
2021/12/08 11:00:07;;;;;;;5.10;1.67;;;6.00;99.90;;;;;;5041980;28;20036;-87
2021/12/08 11:02:41;;;;;;;11.20;3.92;;;6.00;99.90;;;;;;5054381;28;20052;-85
2021/12/08 11:05:38;;;;;;;13.80;4.40;;;6.00;99.90;;;;;;5050302;28;20044;-87
2021/12/08 11:08:05;;;;;;;10.63;3.88;;;6.10;99.90;;;;;;5042964;28;20083;-86
2021/12/08 11:10:47;;;;;;;13.07;4.82;;;6.10;99.90;;;;;;5038670;28;20082;-86
2021/12/08 11:13:15;;;;;;;6.57;1.80;;;6.20;99.90;;;;;;5064277;28;20131;-87
2021/12/08 11:15:41;;;;;;;9.77;2.42;;;6.20;99.90;;;;;;5060933;28;20109;-87
2021/12/08 11:18:21;;;;;;;11.20;4.60;;;6.20;99.90;;;;;;5046345;28;20134;-87
2021/12/08 11:20:54;;;;;;;6.00;2.13;;;6.40;99.90;;;;;;5034130;28;20443;-87
2021/12/08 11:23:39;;;;;;;5.07;1.98;;;6.40;99.90;;;;;;5058371;28;20052;-86
2021/12/08 11:26:14;;;;;;;10.35;4.30;;;6.40;99.90;;;;;;5047828;28;20334;-86
2021/12/08 11:28:41;;;;;;;6.07;1.95;;;6.50;99.90;;;;;;5036968;28;20056;-87
2021/12/08 11:31:16;;;;;;;8.68;3.92;;;6.50;99.90;;;;;;5106092;27;20040;-86
2021/12/08 11:33:48;;;;;;;11.25;4.63;;;6.60;99.90;;;;;;5071449;28;20054;-85
2021/12/08 11:36:25;;;;;;;9.90;4.22;;;6.60;99.90;;;;;;5093529;28;20518;-87
2021/12/08 11:38:51;;;;;;;8.10;2.20;;;6.70;99.90;;;;;;5090923;28;20048;-86
2021/12/08 11:41:34;;;;;;;7.20;2.80;;;6.60;99.90;;;;;;5080970;28;20054;-85
2021/12/08 11:44:03;;;;;;;12.05;4.90;;;6.60;99.90;;;;;;5071807;28;20134;-89
2021/12/08 11:46:33;;;;;;;14.95;4.78;;;6.60;99.90;;;;;;5100873;28;20048;-86
2021/12/08 11:49:06;;;;;;;10.80;5.10;;;6.70;99.90;;;;;;5070755;28;20108;-87
2021/12/08 11:51:55;;;;;;;5.60;1.42;;;6.70;99.90;;;;;;5081887;28;20071;-87
2021/12/08 11:54:27;;;;;;;11.77;4.75;;;6.60;99.90;;;;;;5098921;28;20036;-87
2021/12/08 11:57:10;;;;;;;10.23;2.83;;;6.60;99.90;;;;;;5096112;28;20043;-86
2021/12/08 11:59:48;;;;;;;10.77;4.70;;;6.60;99.90;;;;;;5085165;28;20118;-87
2021/12/08 12:02:15;;;;;;;11.45;4.32;;;6.60;99.90;;;;;;5108361;28;20089;-87
2021/12/08 12:04:44;;;;;;;7.22;2.30;;;6.60;99.90;;;;;;5075982;28;20063;-88
2021/12/08 12:07:12;;;;;;;11.43;4.63;;;6.60;99.90;;;;;;5071621;28;20051;-87
2021/12/08 12:09:40;;;;;;;11.43;4.00;;;6.60;99.90;;;;;;5071821;28;20032;-87
2021/12/08 12:12:06;;;;;;;10.02;2.13;;;6.60;99.90;;;;;;5071736;28;20465;-86
2021/12/08 12:14:32;;;;;;;6.25;2.00;;;6.50;99.90;;;;;;5072092;28;20036;-87
2021/12/08 12:16:58;;;;;;;11.13;3.80;;;6.50;99.90;;;;;;5071542;28;20056;-87
2021/12/08 12:19:27;;;;;;;9.25;3.60;;;6.50;99.90;;;;;;5090894;28;20086;-87
2021/12/08 12:21:58;;;;;;;5.40;1.50;;;6.50;99.90;;;;;;5070509;28;20048;-87
2021/12/08 12:24:42;;;;;;;;;;;6.40;99.90;;;;;;5091294;28;20040;-89
2021/12/08 12:27:13;;;;;;;4.13;1.77;;;6.50;99.90;;;;;;5112990;27;19927;-87
2021/12/08 12:30:08;;;;;;;9.47;2.40;;;6.40;99.90;;;;;;5091821;27;20605;-88
2021/12/08 12:32:48;;;;;;;5.25;1.85;;;6.40;99.90;;;;;;5125030;27;20409;-87
2021/12/08 12:35:31;;;;;;;10.20;3.80;;;6.40;99.90;;;;;;5116456;27;20159;-88
2021/12/08 12:38:04;;;;;;;6.22;1.92;;;6.50;99.90;;;;;;5109252;27;20043;-87
2021/12/08 12:40:46;;;;;;;10.73;3.95;;;6.50;99.90;;;;;;5102290;27;20051;-87
2021/12/08 12:43:26;;;;;;;8.48;3.72;;;6.50;99.90;;;;;;5109330;27;20050;-88
2021/12/08 12:46:04;;;;;;;7.30;2.00;;;6.50;99.90;;;;;;5109404;27;20036;-88
2021/12/08 12:48:31;;;;;;;9.40;3.78;;;6.50;99.90;;;;;;5108839;27;20116;-88
2021/12/08 12:51:08;;;;;;;5.85;1.83;;;6.50;99.90;;;;;;5123769;27;20588;-87
2021/12/08 12:53:35;;;;;;;10.35;4.00;;;6.50;99.90;;;;;;5116798;27;20036;-87
2021/12/08 12:56:01;;;;;;;11.27;3.90;;;6.50;99.90;;;;;;5099673;27;20058;-87
2021/12/08 12:58:44;;;;;;;6.40;1.67;;;6.50;99.90;;;;;;5094811;27;20488;-88
2021/12/08 13:01:14;;;;;;;12.27;3.60;;;6.50;99.90;;;;;;5126926;27;20058;-88
2021/12/08 13:03:49;;;;;;;10.93;3.65;;;6.50;99.90;;;;;;5101947;27;20088;-87
2021/12/08 13:06:36;;;;;;;5.80;1.77;;;6.60;99.90;;;;;;5102847;27;20099;-87
2021/12/08 13:09:03;;;;;;;12.23;3.88;;;6.60;99.90;;;;;;5122489;27;20054;-87
2021/12/08 13:11:33;;;;;;;5.43;2.03;;;6.60;99.90;;;;;;5125560;27;20043;-87
2021/12/08 13:13:59;;;;;;;10.73;3.63;;;6.60;99.90;;;;;;5122748;27;20043;-87
2021/12/08 13:16:33;;;;;;;8.60;2.10;;;6.60;99.90;;;;;;5100905;27;20444;-87
2021/12/08 13:19:03;;;;;;;11.48;3.70;;;6.60;99.90;;;;;;5098956;27;20043;-87
2021/12/08 13:21:58;;;;;;;9.65;2.22;;;6.60;99.90;;;;;;5109486;27;20044;-88
2021/12/08 13:24:38;;;;;;;9.90;4.05;;;6.60;99.90;;;;;;5105645;27;20245;-88
2021/12/08 13:27:06;;;;;;;8.55;2.00;;;6.60;99.90;;;;;;5107586;27;20067;-87
2021/12/08 13:29:35;;;;;;;9.82;3.97;;;6.50;99.90;;;;;;5124942;27;20111;-88
2021/12/08 13:32:15;;;;;;;11.23;4.00;;;6.50;99.90;;;;;;5113136;27;20047;-88
2021/12/08 13:34:44;;;;;;;11.65;3.80;;;6.60;99.90;;;;;;5103879;27;20035;-87
2021/12/08 13:37:19;;;;;;;6.70;2.08;;;6.60;99.90;;;;;;5117324;27;20125;-89
2021/12/08 13:39:47;;;;;;;5.70;1.75;;;6.60;99.90;;;;;;5124280;27;20031;-87
2021/12/08 13:42:16;;;;;;;10.02;3.67;;;6.50;99.90;;;;;;5108119;27;20510;-87
2021/12/08 13:45:00;;;;;;;7.15;1.90;;;6.60;99.90;;;;;;5120919;27;20404;-88
2021/12/08 13:47:39;;;;;;;8.82;3.40;;;6.60;99.90;;;;;;5121937;27;20058;-87
2021/12/08 13:50:20;;;;;;;4.80;2.20;;;6.60;99.90;;;;;;5123288;27;20514;-87
2021/12/08 13:53:18;;;;;;;5.28;1.50;;;6.60;99.90;;;;;;5106782;27;20048;-87
2021/12/08 13:55:58;;;;;;;8.80;3.42;;;6.60;99.90;;;;;;5056091;27;20062;-88
2021/12/08 13:58:24;;;;;;;6.43;2.00;;;6.60;99.90;;;;;;5108972;27;20502;-88
2021/12/08 14:00:55;;;;;;;8.23;1.92;;;6.50;99.90;;;;;;5098124;28;20039;-88